createdAt,value
2022-08-04T00:00:01.430Z,15.50
2022-08-04T00:02:58.950Z,15.50
2022-08-04T00:06:01.669Z,15.50
2022-08-04T00:08:46.460Z,15.40
2022-08-04T00:11:23.352Z,15.30
2022-08-04T00:14:03.868Z,15.30
2022-08-04T00:16:40.086Z,15.30
2022-08-04T00:19:17.536Z,15.30
2022-08-04T00:21:57.520Z,15.20
2022-08-04T00:24:32.265Z,15.20
2022-08-04T00:27:06.221Z,15.20
2022-08-04T00:29:40.515Z,15.10
2022-08-04T00:32:15.521Z,15.10
2022-08-04T00:35:09.873Z,15.10
2022-08-04T00:37:45.911Z,15.00
2022-08-04T00:40:43.503Z,15.00
2022-08-04T00:43:25.654Z,15.00
2022-08-04T00:46:28.703Z,14.90
2022-08-04T00:49:30.654Z,14.90
2022-08-04T00:52:31.496Z,14.90
2022-08-04T00:55:23.035Z,14.90
2022-08-04T00:58:07.288Z,14.80
2022-08-04T01:00:49.921Z,14.80
2022-08-04T01:03:33.366Z,14.80
2022-08-04T01:06:17.214Z,14.80
2022-08-04T01:09:00.997Z,14.80
2022-08-04T01:11:57.080Z,14.70
2022-08-04T01:14:45.577Z,14.70
2022-08-04T01:17:25.660Z,14.70
2022-08-04T01:20:07.166Z,14.60
2022-08-04T01:23:18.441Z,14.60
2022-08-04T01:26:53.649Z,14.60
2022-08-04T01:29:46.727Z,14.50
2022-08-04T01:32:29.201Z,14.50
2022-08-04T01:35:10.150Z,14.40
2022-08-04T01:37:53.105Z,14.40
2022-08-04T01:40:28.894Z,14.40
2022-08-04T01:43:04.848Z,14.30
2022-08-04T01:45:41.535Z,14.30
2022-08-04T01:48:16.274Z,14.30
2022-08-04T01:50:52.836Z,14.20
2022-08-04T01:53:33.018Z,14.20
2022-08-04T01:56:07.816Z,14.20
2022-08-04T01:58:42.737Z,14.20
2022-08-04T02:01:18.284Z,14.10
2022-08-04T02:04:20.208Z,14.10
2022-08-04T02:06:53.580Z,14.10
2022-08-04T02:09:34.195Z,14.00
2022-08-04T02:12:34.923Z,14.00
2022-08-04T02:15:15.213Z,14.00
2022-08-04T02:18:02.476Z,14.00
2022-08-04T02:20:39.090Z,14.00
2022-08-04T02:23:16.544Z,14.00
2022-08-04T02:25:57.644Z,14.00
2022-08-04T02:28:36.911Z,14.00
2022-08-04T02:31:18.189Z,14.00
2022-08-04T02:34:08.029Z,14.00
2022-08-04T02:36:43.455Z,14.00
2022-08-04T02:39:20.588Z,14.00
2022-08-04T02:41:55.569Z,14.10
2022-08-04T02:44:29.950Z,14.10
2022-08-04T02:47:03.967Z,14.10
2022-08-04T02:49:41.291Z,14.10
2022-08-04T02:52:17.774Z,14.10
2022-08-04T02:54:56.333Z,14.20
2022-08-04T02:57:32.816Z,14.20
2022-08-04T03:00:09.656Z,14.20
2022-08-04T03:02:55.529Z,14.20
2022-08-04T03:05:50.810Z,14.20
2022-08-04T03:09:00.722Z,14.20
2022-08-04T03:12:02.204Z,14.30
2022-08-04T03:15:04.065Z,14.30
2022-08-04T03:18:07.490Z,14.30
2022-08-04T03:21:06.585Z,14.30
2022-08-04T03:24:11.294Z,14.40
2022-08-04T03:27:12.508Z,14.40
2022-08-04T03:30:11.610Z,14.40
2022-08-04T03:33:28.450Z,14.40
2022-08-04T03:36:34.731Z,14.40
2022-08-04T03:39:50.669Z,14.40
2022-08-04T03:42:53.025Z,14.40
2022-08-04T03:46:08.592Z,14.40
2022-08-04T03:48:59.632Z,14.40
2022-08-04T03:52:01.177Z,14.40
2022-08-04T03:55:09.377Z,14.40
2022-08-04T03:58:11.633Z,14.50
2022-08-04T04:00:54.968Z,14.50
2022-08-04T04:03:56.283Z,14.50
2022-08-04T04:07:08.961Z,14.50
2022-08-04T04:10:06.222Z,14.50
2022-08-04T04:13:15.038Z,14.40
2022-08-04T04:16:20.343Z,14.40
2022-08-04T04:19:23.950Z,14.40
2022-08-04T04:22:17.253Z,14.40
2022-08-04T04:25:18.895Z,14.40
2022-08-04T04:28:44.545Z,14.50
2022-08-04T04:31:27.795Z,14.50
2022-08-04T04:34:10.631Z,14.50
2022-08-04T04:36:58.410Z,14.60
2022-08-04T04:39:38.167Z,14.60
2022-08-04T04:42:34.875Z,14.70
2022-08-04T04:45:18.801Z,14.70
2022-08-04T04:48:09.486Z,14.70
2022-08-04T04:50:59.378Z,14.70
2022-08-04T04:53:45.441Z,14.80
2022-08-04T04:56:28.789Z,14.70
2022-08-04T04:59:10.531Z,14.80
2022-08-04T05:02:18.190Z,14.80
2022-08-04T05:05:24.283Z,14.90
2022-08-04T05:08:43.051Z,14.90
2022-08-04T05:11:55.076Z,15.00
2022-08-04T05:14:41.050Z,15.00
2022-08-04T05:17:22.196Z,15.10
2022-08-04T05:20:01.957Z,15.20
2022-08-04T05:22:41.732Z,15.20
2022-08-04T05:25:22.249Z,15.30
2022-08-04T05:28:03.608Z,15.30
2022-08-04T05:30:48.476Z,15.40
2022-08-04T05:33:29.129Z,15.40
2022-08-04T05:36:18.956Z,15.50
2022-08-04T05:39:01.744Z,15.50
2022-08-04T05:41:45.485Z,15.50
2022-08-04T05:44:23.393Z,15.60
2022-08-04T05:46:59.567Z,15.60
2022-08-04T05:49:35.988Z,15.60
2022-08-04T05:52:12.133Z,15.70
2022-08-04T05:54:47.644Z,15.70
2022-08-04T05:57:22.662Z,15.80
2022-08-04T05:59:58.760Z,15.90
2022-08-04T06:02:35.404Z,15.90
2022-08-04T06:05:11.864Z,16.00
2022-08-04T06:08:12.789Z,16.10
2022-08-04T06:10:41.198Z,16.20
2022-08-04T06:13:47.885Z,16.30
2022-08-04T06:16:28.935Z,16.40
2022-08-04T06:20:00.219Z,16.50
2022-08-04T06:22:05.273Z,16.60
2022-08-04T06:24:41.716Z,16.70
2022-08-04T06:27:16.649Z,16.90
2022-08-04T06:29:52.121Z,17.00
2022-08-04T06:32:34.366Z,17.10
2022-08-04T06:35:12.175Z,17.20
2022-08-04T06:37:48.255Z,17.30
2022-08-04T06:40:30.713Z,17.40
2022-08-04T06:43:08.400Z,17.50
2022-08-04T06:45:45.186Z,17.70
2022-08-04T06:48:21.037Z,17.80
2022-08-04T06:51:24.726Z,17.90
2022-08-04T06:53:52.406Z,18.00
2022-08-04T06:56:26.671Z,18.20
2022-08-04T06:59:02.223Z,18.30
2022-08-04T07:01:38.146Z,18.50
2022-08-04T07:04:13.106Z,18.60
2022-08-04T07:06:48.015Z,18.80
2022-08-04T07:09:21.759Z,18.90
2022-08-04T07:11:55.912Z,19.10
2022-08-04T07:14:31.247Z,19.30
2022-08-04T07:17:06.097Z,19.40
2022-08-04T07:19:39.593Z,19.60
2022-08-04T07:22:17.770Z,19.80
2022-08-04T07:25:00.001Z,20.00
2022-08-04T07:27:47.521Z,20.20
2022-08-04T07:30:24.961Z,20.40
2022-08-04T07:32:58.708Z,20.70
2022-08-04T07:36:05.252Z,21.00
2022-08-04T07:38:27.967Z,21.20
2022-08-04T07:41:03.861Z,21.60
2022-08-04T07:43:39.061Z,21.80
2022-08-04T07:46:12.685Z,22.10
2022-08-04T07:48:46.610Z,22.40
2022-08-04T07:51:20.199Z,22.70
2022-08-04T07:53:56.770Z,23.00
2022-08-04T07:56:31.409Z,23.30
2022-08-04T07:59:06.357Z,23.70
2022-08-04T08:01:41.851Z,24.00
2022-08-04T08:04:16.792Z,24.30
2022-08-04T08:06:50.225Z,24.60
2022-08-04T08:09:25.427Z,24.80
2022-08-04T08:12:37.425Z,25.10
2022-08-04T08:14:52.801Z,25.40
2022-08-04T08:17:26.457Z,25.70
2022-08-04T08:20:00.165Z,26.00
2022-08-04T08:22:33.928Z,26.30
2022-08-04T08:25:09.488Z,26.60
2022-08-04T08:27:56.213Z,26.90
2022-08-04T08:30:31.393Z,27.20
2022-08-04T08:33:08.341Z,27.50
2022-08-04T08:35:54.781Z,27.70
2022-08-04T08:38:39.786Z,28.00
2022-08-04T08:41:37.305Z,28.20
2022-08-04T08:44:38.035Z,28.50
2022-08-04T08:47:28.834Z,28.80
2022-08-04T08:50:25.059Z,29.10
2022-08-04T08:53:15.291Z,29.30
2022-08-04T08:56:03.775Z,29.60
2022-08-04T08:58:51.405Z,29.90
2022-08-04T09:01:41.965Z,30.10
2022-08-04T09:04:33.886Z,30.20
2022-08-04T09:07:43.939Z,30.30
2022-08-04T09:10:27.137Z,30.50
2022-08-04T09:13:07.423Z,30.80
2022-08-04T09:15:54.137Z,31.00
2022-08-04T09:18:35.252Z,31.20
2022-08-04T09:21:24.432Z,31.30
2022-08-04T09:24:34.828Z,31.50
2022-08-04T09:27:03.311Z,31.80
2022-08-04T09:29:43.052Z,32.00
2022-08-04T09:32:38.063Z,32.10
2022-08-04T09:35:24.305Z,32.20
2022-08-04T09:38:05.373Z,32.40
2022-08-04T09:40:53.054Z,32.60
2022-08-04T09:43:59.163Z,32.70
2022-08-04T09:46:44.267Z,32.90
2022-08-04T09:49:24.622Z,33.10
2022-08-04T09:52:07.764Z,33.20
2022-08-04T09:54:50.357Z,33.40
2022-08-04T09:57:52.962Z,33.50
2022-08-04T10:00:40.787Z,33.50
2022-08-04T10:03:20.300Z,33.50
2022-08-04T10:06:08.151Z,33.70
2022-08-04T10:09:01.233Z,33.60
2022-08-04T10:11:55.811Z,33.60
2022-08-04T10:14:40.191Z,33.60
2022-08-04T10:17:27.324Z,33.80
2022-08-04T10:20:09.064Z,33.60
2022-08-04T10:23:11.130Z,33.70
2022-08-04T10:26:07.693Z,33.50
2022-08-04T10:28:47.664Z,33.30
2022-08-04T10:31:27.392Z,33.40
2022-08-04T10:34:07.263Z,33.50
2022-08-04T10:36:51.221Z,33.60
2022-08-04T10:39:43.286Z,33.50
2022-08-04T10:42:26.524Z,33.50
2022-08-04T10:45:11.537Z,33.50
2022-08-04T10:47:53.550Z,33.60
2022-08-04T10:50:29.614Z,33.70
2022-08-04T10:53:09.544Z,33.80
2022-08-04T10:56:07.846Z,33.90
2022-08-04T10:58:50.964Z,34.10
2022-08-04T11:02:01.397Z,34.30
2022-08-04T11:04:28.103Z,34.30
2022-08-04T11:07:02.226Z,34.40
2022-08-04T11:09:37.054Z,34.50
2022-08-04T11:12:17.762Z,34.50
2022-08-04T11:14:56.082Z,34.40
2022-08-04T11:17:34.736Z,34.60
2022-08-04T11:20:34.584Z,34.70
2022-08-04T11:23:11.866Z,34.90
2022-08-04T11:25:57.332Z,35.00
2022-08-04T11:28:40.728Z,35.00
2022-08-04T11:31:19.960Z,35.20
2022-08-04T11:33:58.978Z,35.30
2022-08-04T11:36:40.825Z,35.30
2022-08-04T11:39:19.621Z,35.40
2022-08-04T11:41:57.769Z,35.50
2022-08-04T11:44:39.127Z,35.60
2022-08-04T11:47:23.708Z,35.70
2022-08-04T11:50:04.586Z,35.80
2022-08-04T11:52:41.272Z,35.90
2022-08-04T11:55:19.460Z,35.90
2022-08-04T11:57:54.072Z,35.90
2022-08-04T12:00:32.453Z,35.70
2022-08-04T12:03:30.801Z,35.80
2022-08-04T12:06:18.937Z,35.80
2022-08-04T12:09:04.004Z,35.90
2022-08-04T12:11:47.894Z,36.00
2022-08-04T12:14:32.695Z,36.20
2022-08-04T12:17:08.729Z,36.30
2022-08-04T12:20:03.507Z,36.30
2022-08-04T12:22:45.083Z,36.20
2022-08-04T12:25:25.792Z,36.20
2022-08-04T12:28:04.260Z,36.20
2022-08-04T12:30:58.059Z,35.90
2022-08-04T12:34:05.122Z,35.90
2022-08-04T12:36:46.293Z,35.90
2022-08-04T12:39:22.044Z,35.80
2022-08-04T12:42:04.647Z,35.90
2022-08-04T12:44:41.430Z,35.80
2022-08-04T12:47:36.198Z,35.70
2022-08-04T12:50:15.527Z,35.80
2022-08-04T12:53:08.462Z,35.80
2022-08-04T12:56:01.174Z,35.60
2022-08-04T12:58:43.282Z,35.40
2022-08-04T13:02:08.161Z,35.40
2022-08-04T13:04:17.984Z,35.30
2022-08-04T13:06:58.935Z,35.30
2022-08-04T13:09:35.464Z,35.30
2022-08-04T13:12:14.650Z,35.30
2022-08-04T13:14:52.898Z,35.40
2022-08-04T13:20:26.732Z,35.50
2022-08-04T13:23:09.473Z,35.60
2022-08-04T13:26:45.250Z,35.60
2022-08-04T13:28:42.861Z,35.60
2022-08-04T13:30:24.660Z,35.40
2022-08-04T13:31:18.877Z,35.60
2022-08-04T13:33:55.255Z,35.60
2022-08-04T13:36:31.378Z,35.60
2022-08-04T13:39:10.750Z,35.60
2022-08-04T13:41:56.923Z,35.60
2022-08-04T13:44:35.855Z,35.60
2022-08-04T13:47:14.797Z,35.60
2022-08-04T13:50:14.842Z,35.60
2022-08-04T13:52:48.723Z,35.70
2022-08-04T13:55:29.256Z,35.60
2022-08-04T13:58:07.048Z,35.40
2022-08-04T14:00:50.737Z,35.40
2022-08-04T14:03:30.670Z,35.30
2022-08-04T14:06:13.995Z,35.10
2022-08-04T14:08:51.023Z,35.00
2022-08-04T14:12:08.808Z,34.90
2022-08-04T14:14:29.596Z,35.00
2022-08-04T14:17:07.432Z,34.90
2022-08-04T14:19:54.152Z,34.90
2022-08-04T14:22:34.306Z,34.90
2022-08-04T14:25:16.194Z,34.90
2022-08-04T14:27:53.714Z,34.70
2022-08-04T14:30:29.118Z,34.60
2022-08-04T14:34:01.699Z,34.60
2022-08-04T14:36:01.477Z,34.50
2022-08-04T14:38:52.312Z,34.50
2022-08-04T14:41:29.007Z,34.50
2022-08-04T14:44:07.271Z,34.50
2022-08-04T14:46:51.829Z,34.50
2022-08-04T14:49:26.684Z,34.50
2022-08-04T14:52:03.166Z,34.50
2022-08-04T14:54:37.135Z,34.30
2022-08-04T14:57:10.941Z,34.20
2022-08-04T14:59:59.436Z,34.20
2022-08-04T15:02:36.286Z,34.10
2022-08-04T15:06:00.085Z,34.00
2022-08-04T15:08:04.127Z,33.80
2022-08-04T15:10:38.480Z,33.70
2022-08-04T15:13:14.382Z,33.60
2022-08-04T15:16:06.645Z,33.60
2022-08-04T15:18:42.582Z,33.50
2022-08-04T15:21:16.816Z,33.30
2022-08-04T15:23:50.769Z,33.20
2022-08-04T15:26:30.625Z,33.10
2022-08-04T15:29:14.465Z,32.90
2022-08-04T15:32:03.791Z,32.70
2022-08-04T15:34:49.232Z,32.50
2022-08-04T15:37:29.606Z,32.40
2022-08-04T15:40:10.159Z,32.40
2022-08-04T15:42:49.858Z,32.30
2022-08-04T15:46:42.500Z,32.30
2022-08-04T15:48:29.092Z,32.30
2022-08-04T15:51:14.589Z,32.20
2022-08-04T15:54:27.825Z,32.00
2022-08-04T15:57:06.886Z,31.90
2022-08-04T16:00:01.355Z,31.70
2022-08-04T16:02:45.092Z,31.60
2022-08-04T16:05:40.425Z,31.50
2022-08-04T16:08:18.122Z,31.40
2022-08-04T16:10:51.633Z,31.30
2022-08-04T16:13:25.424Z,31.20
2022-08-04T16:16:03.282Z,31.10
2022-08-04T16:18:43.843Z,31.00
2022-08-04T16:21:24.836Z,30.80
2022-08-04T16:24:11.169Z,30.60
2022-08-04T16:26:54.223Z,30.40
2022-08-04T16:29:40.209Z,30.30
2022-08-04T16:32:25.301Z,30.20
2022-08-04T16:35:04.404Z,30.10
2022-08-04T16:37:43.594Z,30.00
2022-08-04T16:40:37.097Z,29.90
2022-08-04T16:43:13.363Z,29.80
2022-08-04T16:45:54.098Z,29.70
2022-08-04T16:48:29.656Z,29.50
2022-08-04T16:51:06.708Z,29.40
2022-08-04T16:54:02.998Z,29.30
2022-08-04T16:56:37.642Z,29.20
2022-08-04T16:59:12.466Z,29.00
2022-08-04T17:01:50.115Z,28.90
2022-08-04T17:04:30.983Z,28.80
2022-08-04T17:07:06.464Z,28.60
2022-08-04T17:09:51.147Z,28.50
2022-08-04T17:12:29.737Z,28.40
2022-08-04T17:15:03.247Z,28.20
2022-08-04T17:18:03.923Z,28.10
2022-08-04T17:21:01.477Z,28.00
2022-08-04T17:24:15.152Z,27.80
2022-08-04T17:26:40.236Z,27.60
2022-08-04T17:29:19.688Z,27.40
2022-08-04T17:31:53.687Z,27.20
2022-08-04T17:34:27.307Z,27.00
2022-08-04T17:37:36.651Z,26.80
2022-08-04T17:40:09.966Z,26.60
2022-08-04T17:42:45.807Z,26.40
2022-08-04T17:45:49.297Z,26.20
2022-08-04T17:48:24.906Z,25.90
2022-08-04T17:51:17.119Z,25.70
2022-08-04T17:54:02.276Z,25.50
2022-08-04T17:56:43.149Z,25.30
2022-08-04T17:59:52.146Z,25.10
2022-08-04T18:02:32.227Z,25.00
2022-08-04T18:05:11.753Z,24.80
2022-08-04T18:08:44.258Z,24.60
2022-08-04T18:10:44.636Z,24.40
2022-08-04T18:13:29.823Z,24.20
2022-08-04T18:16:14.272Z,24.00
2022-08-04T18:19:10.829Z,23.80
2022-08-04T18:22:00.492Z,23.60
2022-08-04T18:24:55.517Z,23.40
2022-08-04T18:27:31.744Z,23.20
2022-08-04T18:30:33.591Z,23.10
2022-08-04T18:33:10.539Z,22.90
2022-08-04T18:36:34.418Z,22.70
2022-08-04T18:38:55.596Z,22.50
2022-08-04T18:42:02.527Z,22.30
2022-08-04T18:44:28.130Z,22.20
2022-08-04T18:47:19.062Z,22.00
2022-08-04T18:51:00.122Z,21.80
2022-08-04T18:52:53.131Z,21.70
2022-08-04T18:55:57.357Z,21.50
2022-08-04T18:58:27.582Z,21.40
2022-08-04T19:01:01.493Z,21.20
2022-08-04T19:03:35.029Z,21.10
2022-08-04T19:06:11.417Z,21.00
2022-08-04T19:08:45.188Z,20.90
2022-08-04T19:11:38.148Z,20.80
2022-08-04T19:14:13.786Z,20.60
2022-08-04T19:16:48.582Z,20.50
2022-08-04T19:19:21.993Z,20.30
2022-08-04T19:22:35.483Z,20.20
2022-08-04T19:25:10.036Z,20.10
2022-08-04T19:27:43.935Z,20.00
2022-08-04T19:30:17.686Z,19.80
2022-08-04T19:32:53.138Z,19.70
2022-08-04T19:35:26.613Z,19.60
2022-08-04T19:38:04.733Z,19.50
2022-08-04T19:40:39.120Z,19.40
2022-08-04T19:43:15.072Z,19.30
2022-08-04T19:45:49.034Z,19.30
2022-08-04T19:48:26.342Z,19.20
2022-08-04T19:51:02.521Z,19.10
2022-08-04T19:53:43.038Z,19.00
2022-08-04T19:56:18.140Z,18.90
2022-08-04T19:58:51.632Z,18.80
2022-08-04T20:01:31.346Z,18.80
2022-08-04T20:04:09.461Z,18.70
2022-08-04T20:06:44.718Z,18.70
2022-08-04T20:09:26.748Z,18.60
2022-08-04T20:12:00.515Z,18.50
2022-08-04T20:14:34.015Z,18.40
2022-08-04T20:17:09.878Z,18.40
2022-08-04T20:19:51.240Z,18.20
2022-08-04T20:22:51.945Z,18.20
2022-08-04T20:25:36.964Z,18.10
2022-08-04T20:28:36.094Z,18.00
2022-08-04T20:31:04.812Z,17.90
2022-08-04T20:33:41.480Z,17.90
2022-08-04T20:36:23.074Z,17.80
2022-08-04T20:38:56.541Z,17.70
2022-08-04T20:41:36.808Z,17.60
2022-08-04T20:44:12.180Z,17.60
2022-08-04T20:46:45.699Z,17.50
2022-08-04T20:49:19.482Z,17.50
2022-08-04T20:51:52.915Z,17.40
2022-08-04T20:54:27.733Z,17.30
2022-08-04T20:57:05.616Z,17.20
2022-08-04T20:59:39.277Z,17.20
2022-08-04T21:02:16.516Z,17.10
2022-08-04T21:04:50.016Z,17.00
2022-08-04T21:07:24.995Z,17.00
2022-08-04T21:09:58.743Z,16.90
2022-08-04T21:12:33.983Z,16.90
2022-08-04T21:15:14.511Z,16.80
2022-08-04T21:17:58.495Z,16.80
2022-08-04T21:20:42.699Z,16.80
2022-08-04T21:23:17.076Z,16.70
2022-08-04T21:25:58.070Z,16.60
2022-08-04T21:28:33.511Z,16.60
2022-08-04T21:31:11.385Z,16.50
2022-08-04T21:33:55.505Z,16.40
2022-08-04T21:36:28.923Z,16.40
2022-08-04T21:39:04.626Z,16.30
2022-08-04T21:44:39.264Z,16.30
2022-08-04T21:47:23.552Z,16.20
2022-08-04T21:49:57.575Z,16.20
2022-08-04T21:52:30.989Z,16.20
2022-08-04T21:55:04.690Z,16.10
2022-08-04T21:57:38.387Z,16.10
2022-08-04T22:03:23.351Z,16.00
2022-08-04T22:06:04.956Z,15.90
2022-08-04T22:08:39.473Z,15.90
2022-08-04T22:11:27.655Z,15.80
2022-08-04T22:14:29.153Z,15.80
2022-08-04T22:17:04.761Z,15.80
2022-08-04T22:19:50.027Z,15.70
2022-08-04T22:22:29.993Z,15.60
2022-08-04T22:28:03.683Z,15.50
2022-08-04T22:30:38.461Z,15.50
2022-08-04T22:33:23.413Z,15.40
2022-08-04T22:36:17.378Z,15.40
2022-08-04T22:38:56.843Z,15.40
2022-08-04T22:42:02.848Z,15.30
2022-08-04T22:44:33.710Z,15.30
2022-08-04T22:47:09.049Z,15.20
2022-08-04T22:50:13.434Z,15.20
2022-08-04T22:52:55.962Z,15.20
2022-08-04T22:56:07.572Z,15.20
2022-08-04T22:58:28.716Z,15.10
2022-08-04T23:01:02.525Z,15.10
2022-08-04T23:03:38.547Z,15.00
2022-08-04T23:06:13.639Z,15.00
2022-08-04T23:08:48.608Z,15.00
2022-08-04T23:11:22.108Z,14.90
2022-08-04T23:13:55.733Z,14.90
2022-08-04T23:16:29.181Z,14.80
2022-08-04T23:19:09.410Z,14.80
2022-08-04T23:21:47.487Z,14.70
2022-08-04T23:24:21.632Z,14.70
2022-08-04T23:26:55.036Z,14.70
2022-08-04T23:29:52.987Z,14.70
2022-08-04T23:32:23.053Z,14.60
2022-08-04T23:34:59.450Z,14.60
2022-08-04T23:37:35.686Z,14.60
2022-08-04T23:40:33.394Z,14.60
2022-08-04T23:43:17.378Z,14.50
2022-08-04T23:46:07.520Z,14.50
2022-08-04T23:48:42.340Z,14.50
2022-08-04T23:51:16.408Z,14.40
2022-08-04T23:54:03.833Z,14.40
2022-08-04T23:56:37.986Z,14.40
2022-08-04T23:59:23.120Z,14.40
